createdAt,value
2023-03-21T00:01:18.853Z,29.10
2023-03-21T00:03:51.923Z,20.55
2023-03-21T00:06:23.150Z,16.75
2023-03-21T00:08:56.581Z,16.65
2023-03-21T00:11:27.340Z,14.73
2023-03-21T00:13:58.760Z,14.40
2023-03-21T00:16:39.301Z,15.48
2023-03-21T00:19:14.762Z,14.35
2023-03-21T00:24:40.916Z,21.75
2023-03-21T00:27:34.579Z,15.43
2023-03-21T00:30:02.371Z,12.40
2023-03-21T00:32:37.521Z,16.45
2023-03-21T00:35:45.350Z,11.95
2023-03-21T00:38:03.040Z,15.07
2023-03-21T00:40:48.827Z,13.88
2023-03-21T00:43:23.569Z,14.68
2023-03-21T00:45:55.024Z,20.13
2023-03-21T00:48:26.153Z,21.30
2023-03-21T00:50:59.590Z,17.98
2023-03-21T00:53:31.954Z,19.20
2023-03-21T00:56:05.695Z,19.00
2023-03-21T00:58:36.567Z,19.52
2023-03-21T01:01:09.848Z,18.65
2023-03-21T01:03:43.106Z,21.77
2023-03-21T01:06:19.721Z,15.63
2023-03-21T01:08:53.569Z,14.05
2023-03-21T01:11:30.089Z,10.75
2023-03-21T01:14:15.100Z,10.95
2023-03-21T01:16:49.764Z,12.18
2023-03-21T01:19:27.419Z,11.70
2023-03-21T01:21:58.976Z,10.93
2023-03-21T01:24:31.206Z,11.13
2023-03-21T01:27:05.437Z,14.23
2023-03-21T01:29:36.093Z,11.90
2023-03-21T01:32:07.332Z,9.05
2023-03-21T01:34:38.165Z,10.40
2023-03-21T01:37:08.989Z,9.77
2023-03-21T01:39:47.058Z,13.35
2023-03-21T01:42:20.453Z,12.43
2023-03-21T01:44:59.903Z,12.43
2023-03-21T01:47:39.503Z,12.45
2023-03-21T01:50:30.922Z,13.20
2023-03-21T01:55:40.085Z,22.75
2023-03-21T01:58:22.387Z,22.13
2023-03-21T02:01:13.603Z,23.00
2023-03-21T02:03:53.984Z,22.55
2023-03-21T02:06:49.568Z,15.52
2023-03-21T02:09:35.506Z,19.23
2023-03-21T02:12:09.138Z,13.80
2023-03-21T02:14:43.021Z,14.95
2023-03-21T02:17:52.454Z,14.63
2023-03-21T02:21:06.397Z,11.05
2023-03-21T02:24:16.144Z,10.50
2023-03-21T02:27:04.718Z,12.70
2023-03-21T02:30:31.909Z,12.65
2023-03-21T02:33:38.709Z,10.75
2023-03-21T02:36:28.752Z,12.20
2023-03-21T02:39:11.878Z,9.40
2023-03-21T02:41:51.633Z,9.63
2023-03-21T02:44:38.104Z,11.82
2023-03-21T02:47:15.127Z,10.30
2023-03-21T02:49:53.815Z,10.52
2023-03-21T02:52:38.636Z,10.85
2023-03-21T02:55:19.186Z,13.60
2023-03-21T02:58:10.407Z,14.02
2023-03-21T03:00:45.639Z,17.63
2023-03-21T03:03:33.520Z,11.98
2023-03-21T03:06:13.196Z,9.27
2023-03-21T03:09:02.608Z,19.00
2023-03-21T03:11:38.516Z,31.05
2023-03-21T03:14:56.452Z,31.70
2023-03-21T03:17:28.345Z,27.73
2023-03-21T03:20:34.640Z,27.77
2023-03-21T03:23:20.509Z,26.70
2023-03-21T03:25:57.029Z,20.67
2023-03-21T03:28:36.800Z,20.80
2023-03-21T03:31:19.291Z,19.63
2023-03-21T03:33:59.501Z,20.42
2023-03-21T03:36:38.654Z,18.20
2023-03-21T03:39:16.744Z,15.15
2023-03-21T03:42:15.258Z,16.73
2023-03-21T03:44:56.550Z,12.25
2023-03-21T03:47:37.814Z,11.45
2023-03-21T03:50:17.256Z,10.63
2023-03-21T03:55:34.880Z,10.55
2023-03-21T03:58:24.808Z,12.43
2023-03-21T04:01:02.759Z,10.55
2023-03-21T04:03:47.664Z,12.13
2023-03-21T04:06:22.338Z,12.48
2023-03-21T04:08:55.185Z,11.90
2023-03-21T04:11:26.361Z,14.30
2023-03-21T04:13:58.856Z,12.68
2023-03-21T04:16:35.782Z,12.60
2023-03-21T04:19:07.522Z,18.92
2023-03-21T04:21:38.421Z,17.33
2023-03-21T04:24:09.909Z,17.50
2023-03-21T04:26:41.345Z,21.98
2023-03-21T04:29:39.922Z,15.25
2023-03-21T04:32:34.312Z,14.18
2023-03-21T04:35:13.466Z,16.88
2023-03-21T04:37:44.764Z,15.15
2023-03-21T04:40:20.157Z,12.15
2023-03-21T04:42:51.992Z,13.98
2023-03-21T04:45:22.653Z,13.52
2023-03-21T04:47:56.293Z,16.27
2023-03-21T04:50:27.153Z,16.40
2023-03-21T04:52:58.005Z,20.80
2023-03-21T04:55:29.707Z,15.80
2023-03-21T04:58:00.595Z,21.48
2023-03-21T05:00:32.406Z,15.25
2023-03-21T05:03:09.328Z,15.73
2023-03-21T05:05:41.209Z,21.48
2023-03-21T05:08:12.511Z,31.95
2023-03-21T05:10:43.107Z,22.35
2023-03-21T05:13:14.625Z,20.70
2023-03-21T05:15:45.300Z,21.75
2023-03-21T05:18:24.903Z,21.00
2023-03-21T05:21:08.238Z,15.38
2023-03-21T05:23:39.756Z,25.40
2023-03-21T05:26:11.363Z,19.92
2023-03-21T05:28:54.220Z,23.98
2023-03-21T05:31:25.818Z,15.25
2023-03-21T05:34:09.936Z,15.77
2023-03-21T05:36:41.744Z,13.05
2023-03-21T05:39:14.630Z,11.10
2023-03-21T05:41:53.374Z,11.60
2023-03-21T05:44:24.303Z,12.85
2023-03-21T05:46:55.008Z,15.35
2023-03-21T05:49:33.813Z,13.75
2023-03-21T05:52:06.362Z,20.40
2023-03-21T05:54:37.115Z,16.60
2023-03-21T05:57:09.425Z,16.95
2023-03-21T05:59:59.012Z,14.60
2023-03-21T06:02:31.472Z,17.65
2023-03-21T06:05:14.508Z,13.23
2023-03-21T06:07:45.539Z,11.97
2023-03-21T06:10:17.042Z,15.32
2023-03-21T06:12:51.027Z,16.23
2023-03-21T06:15:30.711Z,18.05
2023-03-21T06:18:17.674Z,24.38
2023-03-21T06:21:21.051Z,25.48
2023-03-21T06:23:54.276Z,26.55
2023-03-21T06:26:26.469Z,27.00
2023-03-21T06:28:58.474Z,36.97
2023-03-21T06:31:29.363Z,36.30
2023-03-21T06:34:05.200Z,29.95
2023-03-21T06:36:39.178Z,30.83
2023-03-21T06:39:10.794Z,27.55
2023-03-21T06:41:44.084Z,17.80
2023-03-21T06:44:14.720Z,26.23
2023-03-21T06:46:54.425Z,28.13
2023-03-21T06:49:26.459Z,35.70
2023-03-21T06:52:01.191Z,51.72
2023-03-21T06:54:32.113Z,48.28
2023-03-21T06:57:06.341Z,53.42
2023-03-21T06:59:39.231Z,26.20
2023-03-21T07:02:17.564Z,20.98
2023-03-21T07:04:54.525Z,19.80
2023-03-21T07:07:31.519Z,13.60
2023-03-21T07:10:02.157Z,11.25
2023-03-21T07:12:37.832Z,10.77
2023-03-21T07:15:26.921Z,7.95
2023-03-21T07:17:57.560Z,13.45
2023-03-21T07:20:28.277Z,13.68
2023-03-21T07:23:02.194Z,10.40
2023-03-21T07:25:32.996Z,7.70
2023-03-21T07:28:03.995Z,25.75
2023-03-21T07:30:34.937Z,18.08
2023-03-21T07:33:07.371Z,9.55
2023-03-21T07:35:38.987Z,8.65
2023-03-21T07:38:17.083Z,9.05
2023-03-21T07:40:48.267Z,11.48
2023-03-21T07:43:19.781Z,12.85
2023-03-21T07:45:51.006Z,10.77
2023-03-21T07:48:22.099Z,11.25
2023-03-21T07:50:53.858Z,8.45
2023-03-21T07:53:27.321Z,14.18
2023-03-21T07:55:58.751Z,7.65
2023-03-21T07:58:29.670Z,17.40
2023-03-21T08:01:02.423Z,14.27
2023-03-21T08:03:33.998Z,17.42
2023-03-21T08:06:04.680Z,10.02
2023-03-21T08:08:37.961Z,14.40
2023-03-21T08:11:09.400Z,11.57
2023-03-21T08:13:39.989Z,10.88
2023-03-21T08:16:11.816Z,11.80
2023-03-21T08:18:42.998Z,17.25
2023-03-21T08:21:13.693Z,15.98
2023-03-21T08:23:46.991Z,13.35
2023-03-21T08:26:18.681Z,13.40
2023-03-21T08:28:49.721Z,10.43
2023-03-21T08:31:22.043Z,10.30
2023-03-21T08:33:55.014Z,9.73
2023-03-21T08:36:26.602Z,10.32
2023-03-21T08:39:05.631Z,13.07
2023-03-21T08:41:36.654Z,9.65
2023-03-21T08:44:11.948Z,8.55
2023-03-21T08:46:42.568Z,9.35
2023-03-21T08:49:13.175Z,9.65
2023-03-21T08:51:45.906Z,8.93
2023-03-21T08:54:25.171Z,9.10
2023-03-21T08:56:56.028Z,12.85
2023-03-21T08:59:26.727Z,9.40
2023-03-21T09:01:57.496Z,8.98
2023-03-21T09:04:30.896Z,8.88
2023-03-21T09:07:01.766Z,11.38
2023-03-21T09:09:35.198Z,11.45
2023-03-21T09:12:05.917Z,11.75
2023-03-21T09:14:36.641Z,12.38
2023-03-21T09:17:07.470Z,9.73
2023-03-21T09:19:39.069Z,11.02
2023-03-21T09:22:18.176Z,10.27
2023-03-21T09:24:51.569Z,9.18
2023-03-21T09:27:23.394Z,8.60
2023-03-21T09:29:54.429Z,10.95
2023-03-21T09:32:25.460Z,8.75
2023-03-21T09:34:57.610Z,8.75
2023-03-21T09:37:28.256Z,11.50
2023-03-21T09:40:02.576Z,9.13
2023-03-21T09:42:41.334Z,8.82
2023-03-21T09:45:19.576Z,9.98
2023-03-21T09:47:53.452Z,13.10
2023-03-21T09:50:30.523Z,11.10
2023-03-21T09:53:04.012Z,10.27
2023-03-21T09:55:39.953Z,11.52
2023-03-21T09:58:22.683Z,8.73
2023-03-21T10:00:56.932Z,7.38
2023-03-21T10:03:30.286Z,10.63
2023-03-21T10:06:04.005Z,13.63
2023-03-21T10:08:38.920Z,13.50
2023-03-21T10:11:16.428Z,12.63
2023-03-21T10:13:52.421Z,7.88
2023-03-21T10:16:29.828Z,6.03
2023-03-21T10:19:02.574Z,9.98
2023-03-21T10:22:04.305Z,7.32
2023-03-21T10:24:27.827Z,7.55
2023-03-21T10:27:01.333Z,11.00
2023-03-21T10:29:37.774Z,7.70
2023-03-21T10:32:12.327Z,10.85
2023-03-21T10:34:47.103Z,18.60
2023-03-21T10:37:18.162Z,7.15
2023-03-21T10:39:50.400Z,6.97
2023-03-21T10:42:26.838Z,7.30
2023-03-21T10:44:59.452Z,12.40
2023-03-21T10:47:33.927Z,9.52
2023-03-21T10:50:08.596Z,10.05
2023-03-21T10:52:45.212Z,8.25
2023-03-21T10:55:26.229Z,8.35
2023-03-21T10:58:02.621Z,8.32
2023-03-21T11:00:39.135Z,6.70
2023-03-21T11:03:11.417Z,6.30
2023-03-21T11:05:44.507Z,8.20
2023-03-21T11:08:18.242Z,9.70
2023-03-21T11:10:56.980Z,12.85
2023-03-21T11:13:39.856Z,11.32
2023-03-21T11:16:13.254Z,9.50
2023-03-21T11:18:47.664Z,9.05
2023-03-21T11:21:19.011Z,8.97
2023-03-21T11:23:53.079Z,11.38
2023-03-21T11:26:29.140Z,10.25
2023-03-21T11:29:02.589Z,11.68
2023-03-21T11:31:41.825Z,10.55
2023-03-21T11:34:13.213Z,9.57
2023-03-21T11:36:43.828Z,9.82
2023-03-21T11:39:33.424Z,7.72
2023-03-21T11:42:04.269Z,8.82
2023-03-21T11:44:46.301Z,8.95
2023-03-21T11:47:16.969Z,14.82
2023-03-21T11:49:49.604Z,10.85
2023-03-21T11:52:32.671Z,11.40
2023-03-21T11:55:36.314Z,13.50
2023-03-21T11:58:26.235Z,12.68
2023-03-21T12:01:09.424Z,13.20
2023-03-21T12:03:51.630Z,11.93
2023-03-21T12:06:31.637Z,10.10
2023-03-21T12:09:31.616Z,8.90
2023-03-21T12:12:12.884Z,15.48
2023-03-21T12:14:55.878Z,9.80
2023-03-21T12:17:39.165Z,12.18
2023-03-21T12:20:33.148Z,9.75
2023-03-21T12:23:19.166Z,11.65
2023-03-21T12:25:56.630Z,12.38
2023-03-21T12:28:38.495Z,10.25
2023-03-21T12:31:21.339Z,10.90
2023-03-21T12:34:08.602Z,11.40
2023-03-21T12:36:59.385Z,11.10
2023-03-21T12:39:33.751Z,14.63
2023-03-21T12:42:22.620Z,10.57
2023-03-21T12:45:00.784Z,11.98
2023-03-21T12:47:37.620Z,20.05
2023-03-21T12:50:18.700Z,12.32
2023-03-21T12:52:53.667Z,12.77
2023-03-21T12:55:26.886Z,10.05
2023-03-21T12:58:04.668Z,12.80
2023-03-21T13:00:39.917Z,12.20
2023-03-21T13:03:22.795Z,11.48
2023-03-21T13:05:59.742Z,14.80
2023-03-21T13:08:36.954Z,13.65
2023-03-21T13:11:09.900Z,11.93
2023-03-21T13:13:47.653Z,9.23
2023-03-21T13:16:23.526Z,12.00
2023-03-21T13:19:05.140Z,12.23
2023-03-21T13:21:48.302Z,16.60
2023-03-21T13:24:28.638Z,11.90
2023-03-21T13:27:08.193Z,12.40
2023-03-21T13:29:50.370Z,10.85
2023-03-21T13:32:31.334Z,11.52
2023-03-21T13:35:04.842Z,13.65
2023-03-21T13:37:42.437Z,14.57
2023-03-21T13:40:26.343Z,15.48
2023-03-21T13:42:59.776Z,14.40
2023-03-21T13:45:35.023Z,13.13
2023-03-21T13:50:53.808Z,11.15
2023-03-21T13:53:34.162Z,11.82
2023-03-21T13:56:25.493Z,13.25
2023-03-21T13:59:05.931Z,10.55
2023-03-21T14:01:53.105Z,13.43
2023-03-21T14:04:36.814Z,13.18
2023-03-21T14:07:16.251Z,14.38
2023-03-21T14:09:52.364Z,13.93
2023-03-21T14:12:28.013Z,13.52
2023-03-21T14:15:14.093Z,13.23
2023-03-21T14:17:54.707Z,11.90
2023-03-21T14:20:27.839Z,11.75
2023-03-21T14:22:58.847Z,13.35
2023-03-21T14:25:46.640Z,14.63
2023-03-21T14:28:21.502Z,14.27
2023-03-21T14:30:58.113Z,17.23
2023-03-21T14:33:35.479Z,16.27
2023-03-21T14:36:09.696Z,17.35
2023-03-21T14:38:42.227Z,10.45
2023-03-21T14:41:26.933Z,11.25
2023-03-21T14:44:18.174Z,12.60
2023-03-21T14:46:48.702Z,13.77
2023-03-21T14:49:24.968Z,20.75
2023-03-21T14:51:58.513Z,12.05
2023-03-21T14:54:30.352Z,17.42
2023-03-21T14:57:05.762Z,10.93
2023-03-21T14:59:39.375Z,11.80
2023-03-21T15:02:21.847Z,13.88
2023-03-21T15:04:54.836Z,14.38
2023-03-21T15:07:30.852Z,15.23
2023-03-21T15:10:04.071Z,10.85
2023-03-21T15:12:37.724Z,14.27
2023-03-21T15:15:09.821Z,18.65
2023-03-21T15:17:41.083Z,18.58
2023-03-21T15:20:17.292Z,14.55
2023-03-21T15:22:52.372Z,20.83
2023-03-21T15:25:29.147Z,12.13
2023-03-21T15:28:04.320Z,15.60
2023-03-21T15:30:36.311Z,14.85
2023-03-21T15:33:11.741Z,19.38
2023-03-21T15:35:46.255Z,13.18
2023-03-21T15:38:26.777Z,11.55
2023-03-21T15:41:17.810Z,16.10
2023-03-21T15:43:57.729Z,13.55
2023-03-21T15:46:37.431Z,14.13
2023-03-21T15:49:12.209Z,14.25
2023-03-21T15:51:45.385Z,14.77
2023-03-21T15:54:20.636Z,13.45
2023-03-21T15:56:52.192Z,13.02
2023-03-21T15:59:28.724Z,18.27
2023-03-21T16:01:59.520Z,22.83
2023-03-21T16:04:30.552Z,16.00
2023-03-21T16:07:03.426Z,18.85
2023-03-21T16:09:44.773Z,21.25
2023-03-21T16:12:18.930Z,21.75
2023-03-21T16:14:52.623Z,19.27
2023-03-21T16:17:31.260Z,24.10
2023-03-21T16:20:01.882Z,21.75
2023-03-21T16:22:36.902Z,17.05
2023-03-21T16:25:07.930Z,19.45
2023-03-21T16:27:38.493Z,22.00
2023-03-21T16:30:15.858Z,23.52
2023-03-21T16:32:46.847Z,21.98
2023-03-21T16:35:18.067Z,14.25
2023-03-21T16:37:50.992Z,16.67
2023-03-21T16:40:29.924Z,18.52
2023-03-21T16:43:01.123Z,16.65
2023-03-21T16:45:34.675Z,19.52
2023-03-21T16:48:06.373Z,17.63
2023-03-21T16:50:40.730Z,26.38
2023-03-21T16:53:13.566Z,23.70
2023-03-21T16:55:45.650Z,24.02
2023-03-21T16:58:19.028Z,31.50
2023-03-21T17:00:56.676Z,29.08
2023-03-21T17:03:29.177Z,34.22
2023-03-21T17:06:01.541Z,47.70
2023-03-21T17:08:32.680Z,38.38
2023-03-21T17:11:06.639Z,28.83
2023-03-21T17:13:41.151Z,27.73
2023-03-21T17:16:22.051Z,38.03
2023-03-21T17:18:54.878Z,51.53
2023-03-21T17:21:32.150Z,45.58
2023-03-21T17:24:04.902Z,30.38
2023-03-21T17:26:38.588Z,22.63
2023-03-21T17:29:10.454Z,17.10
2023-03-21T17:31:47.569Z,16.65
2023-03-21T17:34:19.182Z,15.52
2023-03-21T17:36:51.932Z,19.73
2023-03-21T17:39:25.642Z,19.95
2023-03-21T17:41:59.465Z,26.38
2023-03-21T17:44:34.084Z,24.92
2023-03-21T17:47:08.503Z,25.83
2023-03-21T17:49:39.561Z,24.52
2023-03-21T17:52:12.995Z,24.92
2023-03-21T17:54:43.930Z,25.98
2023-03-21T17:57:15.157Z,25.98
2023-03-21T17:59:46.002Z,29.65
2023-03-21T18:02:20.797Z,36.67
2023-03-21T18:04:51.361Z,32.58
2023-03-21T18:07:42.716Z,30.58
2023-03-21T18:10:18.491Z,54.50
2023-03-21T18:12:52.907Z,53.33
2023-03-21T18:15:24.416Z,40.53
2023-03-21T18:17:58.377Z,45.90
2023-03-21T18:20:50.562Z,31.00
2023-03-21T18:23:21.284Z,47.45
2023-03-21T18:25:53.180Z,44.22
2023-03-21T18:28:24.686Z,51.63
2023-03-21T18:31:09.520Z,49.70
2023-03-21T18:33:45.413Z,48.72
2023-03-21T18:36:24.861Z,47.20
2023-03-21T18:38:57.021Z,43.28
2023-03-21T18:41:27.961Z,42.20
2023-03-21T18:44:02.971Z,54.63
2023-03-21T18:46:47.309Z,60.15
2023-03-21T18:50:05.489Z,49.65
2023-03-21T18:52:12.733Z,54.05
2023-03-21T18:54:44.367Z,49.50
2023-03-21T19:00:11.328Z,48.20
2023-03-21T19:02:46.273Z,43.38
2023-03-21T19:05:24.529Z,48.65
2023-03-21T19:07:56.255Z,58.72
2023-03-21T19:10:27.396Z,43.95
2023-03-21T19:12:58.842Z,53.83
2023-03-21T19:15:29.910Z,56.30
2023-03-21T19:18:34.419Z,67.35
2023-03-21T19:20:58.795Z,60.85
2023-03-21T19:23:40.833Z,52.90
2023-03-21T19:26:14.285Z,49.28
2023-03-21T19:28:44.934Z,43.17
2023-03-21T19:31:15.695Z,51.75
2023-03-21T19:33:46.461Z,43.95
2023-03-21T19:36:22.848Z,52.97
2023-03-21T19:38:54.550Z,42.83
2023-03-21T19:41:25.428Z,40.60
2023-03-21T19:43:56.640Z,46.53
2023-03-21T19:46:27.836Z,46.08
2023-03-21T19:48:59.328Z,39.30
2023-03-21T19:51:33.548Z,42.97
2023-03-21T19:54:07.926Z,39.63
2023-03-21T19:56:38.905Z,36.53
2023-03-21T19:59:10.214Z,42.95
2023-03-21T20:01:41.295Z,39.20
2023-03-21T20:04:12.413Z,35.72
2023-03-21T20:06:46.310Z,33.38
2023-03-21T20:09:50.850Z,38.58
2023-03-21T20:12:08.697Z,37.50
2023-03-21T20:14:40.768Z,34.42
2023-03-21T20:17:11.647Z,37.25
2023-03-21T20:19:42.316Z,32.40
2023-03-21T20:22:24.491Z,32.15
2023-03-21T20:25:05.529Z,29.33
2023-03-21T20:27:41.425Z,30.88
2023-03-21T20:30:15.964Z,29.85
2023-03-21T20:32:48.341Z,30.30
2023-03-21T20:35:36.732Z,33.25
2023-03-21T20:38:14.730Z,31.52
2023-03-21T20:40:45.880Z,32.63
2023-03-21T20:44:02.182Z,32.17
2023-03-21T20:46:09.404Z,30.35
2023-03-21T20:48:41.277Z,30.25
2023-03-21T20:54:07.644Z,28.13
2023-03-21T20:56:38.532Z,28.65
2023-03-21T20:59:17.778Z,27.83
2023-03-21T21:01:56.003Z,26.63
2023-03-21T21:07:21.422Z,25.52
2023-03-21T21:09:57.148Z,26.05
2023-03-21T21:12:29.218Z,24.38
2023-03-21T21:14:59.910Z,21.63
2023-03-21T21:18:03.617Z,20.90
2023-03-21T21:20:24.618Z,24.05
2023-03-21T21:23:00.654Z,20.92
2023-03-21T21:25:36.368Z,22.73
2023-03-21T21:28:09.396Z,25.48
2023-03-21T21:30:42.153Z,26.88
2023-03-21T21:33:14.847Z,21.13
2023-03-21T21:35:48.186Z,30.38
2023-03-21T21:38:20.282Z,27.00
2023-03-21T21:40:54.549Z,23.48
2023-03-21T21:43:25.380Z,29.13
2023-03-21T21:45:56.670Z,25.25
2023-03-21T21:48:27.886Z,24.85
2023-03-21T21:50:59.212Z,21.08
2023-03-21T21:53:30.087Z,20.83
2023-03-21T21:56:04.486Z,19.20
2023-03-21T21:58:38.746Z,20.15
2023-03-21T22:01:10.149Z,22.00
2023-03-21T22:03:41.384Z,20.98
2023-03-21T22:06:12.834Z,20.75
2023-03-21T22:08:47.221Z,19.30
2023-03-21T22:11:21.730Z,17.50
2023-03-21T22:13:52.615Z,17.05
2023-03-21T22:16:23.249Z,19.42
2023-03-21T22:18:53.973Z,18.52
2023-03-21T22:21:24.730Z,18.08
2023-03-21T22:23:55.288Z,21.70
2023-03-21T22:26:28.745Z,20.85
2023-03-21T22:29:00.152Z,18.80
2023-03-21T22:31:31.004Z,21.48
2023-03-21T22:34:01.793Z,19.05
2023-03-21T22:36:32.447Z,18.88
2023-03-21T22:39:03.150Z,22.58
2023-03-21T22:41:36.403Z,21.42
2023-03-21T22:44:07.069Z,18.58
2023-03-21T22:46:37.951Z,17.13
2023-03-21T22:49:09.965Z,18.05
2023-03-21T22:51:42.161Z,19.98
2023-03-21T22:54:12.829Z,18.00
2023-03-21T22:56:46.438Z,21.05
2023-03-21T22:59:18.596Z,17.60
2023-03-21T23:01:49.713Z,20.40
2023-03-21T23:04:20.588Z,18.08
2023-03-21T23:06:51.862Z,18.38
2023-03-21T23:09:23.115Z,18.67
2023-03-21T23:11:56.704Z,19.20
2023-03-21T23:14:28.119Z,16.17
2023-03-21T23:17:00.414Z,17.77
2023-03-21T23:19:32.719Z,19.30
2023-03-21T23:22:03.451Z,16.88
2023-03-21T23:24:34.100Z,18.88
2023-03-21T23:27:08.423Z,20.33
2023-03-21T23:29:39.045Z,19.55
2023-03-21T23:32:09.859Z,18.98
2023-03-21T23:34:40.582Z,20.02
2023-03-21T23:37:11.381Z,19.85
2023-03-21T23:39:42.587Z,19.27
2023-03-21T23:42:15.781Z,22.13
2023-03-21T23:44:46.671Z,25.48
2023-03-21T23:47:18.518Z,28.42
2023-03-21T23:49:50.321Z,24.42
2023-03-21T23:52:21.108Z,28.00
2023-03-21T23:54:52.265Z,23.88
2023-03-21T23:57:25.633Z,30.05
2023-03-21T23:59:57.716Z,27.45
